createdAt,value
2022-11-05T00:05:08.685Z,5.1
2022-11-05T00:15:10.849Z,4.9
2022-11-05T00:25:13.225Z,4.6
2022-11-05T00:35:15.152Z,4.3
2022-11-05T00:45:16.884Z,4.3
2022-11-05T00:55:19.189Z,4.4
2022-11-05T01:05:21.382Z,4.2
2022-11-05T01:15:23.345Z,4.3
2022-11-05T01:25:25.399Z,4.5
2022-11-05T01:35:27.397Z,4.8
2022-11-05T01:45:29.144Z,4.8
2022-11-05T01:55:30.974Z,5.3
2022-11-05T02:05:33.193Z,5.5
2022-11-05T02:15:35.546Z,5.4
2022-11-05T02:25:37.416Z,5.3
2022-11-05T02:35:39.205Z,5.2
2022-11-05T02:45:41.354Z,4.7
2022-11-05T02:55:43.909Z,4.9
2022-11-05T03:05:46.521Z,4.6
2022-11-05T03:15:48.683Z,4.3
2022-11-05T03:25:50.550Z,3.9
2022-11-05T03:35:52.494Z,3.5
2022-11-05T03:45:54.823Z,3.4
2022-11-05T04:05:58.628Z,4
2022-11-05T04:16:00.896Z,3.6
2022-11-05T04:26:11.234Z,3.4
2022-11-05T04:36:13.455Z,3.3
2022-11-05T04:46:15.542Z,3
2022-11-05T04:56:17.589Z,2.8
2022-11-05T05:06:20.075Z,4.2
2022-11-05T05:16:21.794Z,4.2
2022-11-05T05:26:23.812Z,4.3
2022-11-05T05:36:26.433Z,4.2
2022-11-05T05:46:28.832Z,4.3
2022-11-05T05:56:31.175Z,4.1
2022-11-05T06:06:33.042Z,4.1
2022-11-05T06:16:35.442Z,4.3
2022-11-05T06:26:37.901Z,4.3
2022-11-05T06:36:39.875Z,4.2
2022-11-05T06:56:44.585Z,4
2022-11-05T07:06:46.518Z,4.1
2022-11-05T07:16:48.759Z,4.4
2022-11-05T07:26:51.046Z,4.6
2022-11-05T07:36:52.855Z,4.8
2022-11-05T07:46:55.068Z,4.9
2022-11-05T07:56:56.900Z,5.2
2022-11-05T08:06:59.424Z,5.6
2022-11-05T08:17:02.025Z,5.9
2022-11-05T08:27:04.104Z,6.4
2022-11-05T08:37:06.440Z,6.8
2022-11-05T08:47:08.572Z,7.3
2022-11-05T08:57:11.162Z,7.9
2022-11-05T09:07:13.729Z,8.1
2022-11-05T09:17:15.709Z,8.4
2022-11-05T09:27:17.665Z,8.7
2022-11-05T09:37:19.330Z,9.7
2022-11-05T09:47:22.025Z,9.8
2022-11-05T09:57:24.021Z,9.9
2022-11-05T10:07:25.886Z,10.4
2022-11-05T10:17:27.995Z,10.5
2022-11-05T10:27:30.520Z,10.4
2022-11-05T10:37:35.027Z,10.7
2022-11-05T10:47:34.410Z,10.6
2022-11-05T10:57:37.008Z,10.7
2022-11-05T11:07:39.406Z,10.9
2022-11-05T11:17:41.896Z,10.9
2022-11-05T11:27:43.835Z,10.9
2022-11-05T11:37:45.746Z,11
2022-11-05T11:47:47.652Z,11.1
2022-11-05T11:57:49.812Z,11.3
2022-11-05T12:07:52.131Z,12
2022-11-05T12:17:54.717Z,11.2
2022-11-05T12:27:57.011Z,11.2
2022-11-05T12:37:59.476Z,11.1
2022-11-05T12:58:03.810Z,11
2022-11-05T13:18:08.097Z,10.8
2022-11-05T13:28:10.116Z,10.7
2022-11-05T13:38:12.053Z,10.8
2022-11-05T13:48:13.843Z,10.9
2022-11-05T13:58:15.475Z,10.7
2022-11-05T14:08:17.498Z,10.8
2022-11-05T14:18:20.009Z,10.4
2022-11-05T14:28:22.248Z,10.2
2022-11-05T14:38:24.748Z,10.2
2022-11-05T14:48:27.029Z,10.2
2022-11-05T14:58:29.123Z,10.1
2022-11-05T15:08:31.124Z,9.9
2022-11-05T15:28:36.076Z,9.9
2022-11-05T15:38:38.163Z,9.8
2022-11-05T15:48:40.767Z,9.8
2022-11-05T15:58:43.124Z,9.6
2022-11-05T16:08:45.440Z,9.5
2022-11-05T16:18:47.676Z,9.5
2022-11-05T16:28:49.849Z,9.4
2022-11-05T16:38:51.846Z,9.3
2022-11-05T16:48:53.973Z,9.3
2022-11-05T16:58:56.282Z,9.4
2022-11-05T17:08:58.067Z,9.4
2022-11-05T17:18:59.988Z,9.3
2022-11-05T17:29:01.716Z,9.3
2022-11-05T17:39:03.743Z,9.4
2022-11-05T17:49:05.462Z,9.5
2022-11-05T17:59:07.415Z,9.5
2022-11-05T18:09:09.383Z,9.6
2022-11-05T18:19:11.393Z,9.6
2022-11-05T18:29:13.735Z,9.6
2022-11-05T18:39:15.499Z,9.6
2022-11-05T18:49:17.174Z,9.6
2022-11-05T18:59:36.223Z,9.5
2022-11-05T19:09:20.982Z,9.5
2022-11-05T19:19:22.836Z,9.5
2022-11-05T19:29:24.699Z,9.5
2022-11-05T19:39:26.948Z,9.5
2022-11-05T19:49:29.222Z,9.4
2022-11-05T19:59:31.135Z,9.4
2022-11-05T20:09:33.629Z,9.4
2022-11-05T20:19:35.296Z,9.4
2022-11-05T20:29:37.818Z,9.3
2022-11-05T20:39:40.269Z,9.3
2022-11-05T20:49:42.549Z,9.2
2022-11-05T20:59:44.836Z,9.1
2022-11-05T21:09:47.512Z,9.1
2022-11-05T21:19:49.819Z,9.1
2022-11-05T21:29:51.910Z,9.1
2022-11-05T21:49:57.155Z,9.1
2022-11-05T21:59:59.480Z,9.1
2022-11-05T22:10:01.180Z,9.1
2022-11-05T22:20:03.442Z,9.1
2022-11-05T22:30:05.674Z,9.1
2022-11-05T22:50:09.846Z,9
2022-11-05T23:00:12.190Z,8.9
2022-11-05T23:10:14.838Z,8.7
2022-11-05T23:30:18.876Z,8.7
2022-11-05T23:40:21.111Z,8.7
2022-11-05T23:50:23.564Z,8.7
